Terminal Aerodrome Forecast
Issued by NWS St Louis, MO

Home | Current Version | Previous Version | Graphics & Text | Print | Product List | Glossary On
Versions: 1 2 3 4 5 6 7 8 9 10 11 12 13 14 15 16 17 18 19 20 21 22 23
038
FTUS43 KLSX 250909 AAA
TAFSTL
TAF AMD
KSTL 250909Z 2509/2612 18007KT P6SM SCT050 BKN250
     FM251500 20008KT P6SM VCTS BKN050CB
     FM252000 17014KT P6SM SCT040 BKN250
     FM260600 18006KT P6SM BKN250=

USA.gov is the U.S. government's official web portal to all federal, state and local government web resources and services.